sensor_id;sensor_type;location;lat;lon;timestamp;pressure;altitude;pressure_sealevel;temperature;humidity
59873;BME280;50750;51.636;4.948;2022-08-05T00:00:07;101642.16;;;26.86;52.13
59873;BME280;50750;51.636;4.948;2022-08-05T00:02:54;101649.16;;;26.86;52.12
59873;BME280;50750;51.636;4.948;2022-08-05T00:05:21;101646.75;;;26.85;52.17
59873;BME280;50750;51.636;4.948;2022-08-05T00:07:48;101651.95;;;26.85;52.14
59873;BME280;50750;51.636;4.948;2022-08-05T00:10:14;101653.23;;;26.84;52.03
59873;BME280;50750;51.636;4.948;2022-08-05T00:12:40;101650.73;;;26.84;52.18
59873;BME280;50750;51.636;4.948;2022-08-05T00:15:08;101656.31;;;26.84;52.14
59873;BME280;50750;51.636;4.948;2022-08-05T00:17:34;101657.02;;;26.84;52.15
59873;BME280;50750;51.636;4.948;2022-08-05T00:20:01;101659.96;;;26.83;52.04
59873;BME280;50750;51.636;4.948;2022-08-05T00:22:27;101662.83;;;26.83;52.15
59873;BME280;50750;51.636;4.948;2022-08-05T00:24:54;101670.92;;;26.84;51.99
59873;BME280;50750;51.636;4.948;2022-08-05T00:27:20;101664.36;;;26.83;52.13
59873;BME280;50750;51.636;4.948;2022-08-05T00:29:47;101668.81;;;26.83;52.11
59873;BME280;50750;51.636;4.948;2022-08-05T00:32:13;101667.77;;;26.83;52.22
59873;BME280;50750;51.636;4.948;2022-08-05T00:34:41;101668.00;;;26.82;52.18
59873;BME280;50750;51.636;4.948;2022-08-05T00:37:08;101671.77;;;26.82;52.10
59873;BME280;50750;51.636;4.948;2022-08-05T00:39:34;101669.50;;;26.81;52.19
59873;BME280;50750;51.636;4.948;2022-08-05T00:42:01;101667.34;;;26.81;52.08
59873;BME280;50750;51.636;4.948;2022-08-05T00:44:28;101663.95;;;26.81;52.16
59873;BME280;50750;51.636;4.948;2022-08-05T00:46:54;101662.18;;;26.81;52.16
59873;BME280;50750;51.636;4.948;2022-08-05T00:49:21;101669.02;;;26.80;52.18
59873;BME280;50750;51.636;4.948;2022-08-05T00:51:47;101675.73;;;26.80;52.20
59873;BME280;50750;51.636;4.948;2022-08-05T00:54:14;101681.54;;;26.79;52.11
59873;BME280;50750;51.636;4.948;2022-08-05T00:56:40;101683.52;;;26.79;52.15
59873;BME280;50750;51.636;4.948;2022-08-05T00:59:07;101690.50;;;26.80;52.24
59873;BME280;50750;51.636;4.948;2022-08-05T01:01:34;101691.23;;;26.79;52.16
59873;BME280;50750;51.636;4.948;2022-08-05T01:04:02;101700.45;;;26.79;52.20
59873;BME280;50750;51.636;4.948;2022-08-05T01:06:28;101700.12;;;26.78;51.93
59873;BME280;50750;51.636;4.948;2022-08-05T01:08:55;101699.57;;;26.78;52.10
59873;BME280;50750;51.636;4.948;2022-08-05T01:11:25;101704.84;;;26.78;52.11
59873;BME280;50750;51.636;4.948;2022-08-05T01:19:27;101719.34;;;26.77;52.09
59873;BME280;50750;51.636;4.948;2022-08-05T01:25:17;101732.11;;;26.76;52.08
59873;BME280;50750;51.636;4.948;2022-08-05T01:31:06;101730.90;;;26.76;52.13
59873;BME280;50750;51.636;4.948;2022-08-05T01:33:39;101732.20;;;26.75;52.16
59873;BME280;50750;51.636;4.948;2022-08-05T01:36:10;101728.65;;;26.75;51.90
59873;BME280;50750;51.636;4.948;2022-08-05T01:38:38;101714.23;;;26.75;52.05
59873;BME280;50750;51.636;4.948;2022-08-05T01:41:06;101702.98;;;26.74;52.00
59873;BME280;50750;51.636;4.948;2022-08-05T01:43:34;101695.98;;;26.74;52.00
59873;BME280;50750;51.636;4.948;2022-08-05T01:46:03;101690.61;;;26.74;52.06
59873;BME280;50750;51.636;4.948;2022-08-05T01:48:34;101703.04;;;26.74;52.02
59873;BME280;50750;51.636;4.948;2022-08-05T01:51:02;101705.02;;;26.74;51.95
59873;BME280;50750;51.636;4.948;2022-08-05T01:53:31;101704.15;;;26.73;51.92
59873;BME280;50750;51.636;4.948;2022-08-05T01:56:01;101703.43;;;26.74;51.96
59873;BME280;50750;51.636;4.948;2022-08-05T01:58:29;101691.44;;;26.73;52.06
59873;BME280;50750;51.636;4.948;2022-08-05T02:00:57;101681.23;;;26.73;52.20
59873;BME280;50750;51.636;4.948;2022-08-05T02:03:32;101674.39;;;26.72;51.99
59873;BME280;50750;51.636;4.948;2022-08-05T02:06:01;101673.71;;;26.72;52.15
59873;BME280;50750;51.636;4.948;2022-08-05T02:08:28;101667.08;;;26.72;52.06
59873;BME280;50750;51.636;4.948;2022-08-05T02:11:06;101668.35;;;26.72;52.06
59873;BME280;50750;51.636;4.948;2022-08-05T02:13:40;101683.82;;;26.72;52.10
59873;BME280;50750;51.636;4.948;2022-08-05T02:16:18;101675.92;;;26.72;51.89
59873;BME280;50750;51.636;4.948;2022-08-05T02:18:52;101659.63;;;26.71;52.21
59873;BME280;50750;51.636;4.948;2022-08-05T02:21:30;101662.00;;;26.71;52.05
59873;BME280;50750;51.636;4.948;2022-08-05T02:24:03;101662.70;;;26.71;51.91
59873;BME280;50750;51.636;4.948;2022-08-05T02:26:43;101659.52;;;26.70;51.98
59873;BME280;50750;51.636;4.948;2022-08-05T02:29:12;101664.20;;;26.70;51.94
59873;BME280;50750;51.636;4.948;2022-08-05T02:31:43;101664.56;;;26.70;52.03
59873;BME280;50750;51.636;4.948;2022-08-05T02:34:13;101675.17;;;26.70;51.90
59873;BME280;50750;51.636;4.948;2022-08-05T02:36:41;101680.09;;;26.69;51.97
59873;BME280;50750;51.636;4.948;2022-08-05T02:39:10;101682.14;;;26.68;52.18
59873;BME280;50750;51.636;4.948;2022-08-05T02:41:38;101695.98;;;26.68;52.09
59873;BME280;50750;51.636;4.948;2022-08-05T02:44:07;101698.92;;;26.67;52.27
59873;BME280;50750;51.636;4.948;2022-08-05T02:46:35;101701.28;;;26.67;52.19
59873;BME280;50750;51.636;4.948;2022-08-05T02:49:04;101700.09;;;26.66;52.08
59873;BME280;50750;51.636;4.948;2022-08-05T02:51:34;101703.32;;;26.66;52.37
59873;BME280;50750;51.636;4.948;2022-08-05T02:54:04;101694.05;;;26.65;51.96
59873;BME280;50750;51.636;4.948;2022-08-05T02:56:32;101693.34;;;26.65;52.25
59873;BME280;50750;51.636;4.948;2022-08-05T02:59:00;101696.44;;;26.64;52.14
59873;BME280;50750;51.636;4.948;2022-08-05T03:01:28;101697.70;;;26.64;52.10
59873;BME280;50750;51.636;4.948;2022-08-05T03:04:01;101691.33;;;26.64;52.20
59873;BME280;50750;51.636;4.948;2022-08-05T03:06:29;101690.30;;;26.63;52.18
59873;BME280;50750;51.636;4.948;2022-08-05T03:08:56;101694.08;;;26.63;52.14
59873;BME280;50750;51.636;4.948;2022-08-05T03:11:25;101698.93;;;26.63;52.13
59873;BME280;50750;51.636;4.948;2022-08-05T03:13:52;101704.70;;;26.62;52.16
59873;BME280;50750;51.636;4.948;2022-08-05T03:16:20;101708.66;;;26.62;52.30
59873;BME280;50750;51.636;4.948;2022-08-05T03:18:46;101711.70;;;26.62;52.15
59873;BME280;50750;51.636;4.948;2022-08-05T03:21:13;101714.25;;;26.62;51.96
59873;BME280;50750;51.636;4.948;2022-08-05T03:23:42;101714.11;;;26.61;52.17
59873;BME280;50750;51.636;4.948;2022-08-05T03:26:09;101714.28;;;26.62;52.12
59873;BME280;50750;51.636;4.948;2022-08-05T03:28:36;101722.23;;;26.61;52.28
59873;BME280;50750;51.636;4.948;2022-08-05T03:31:04;101727.27;;;26.61;52.30
59873;BME280;50750;51.636;4.948;2022-08-05T03:33:30;101723.51;;;26.61;52.10
59873;BME280;50750;51.636;4.948;2022-08-05T03:35:58;101719.96;;;26.60;52.07
59873;BME280;50750;51.636;4.948;2022-08-05T03:38:25;101726.62;;;26.60;52.28
59873;BME280;50750;51.636;4.948;2022-08-05T03:40:52;101722.70;;;26.60;52.14
59873;BME280;50750;51.636;4.948;2022-08-05T03:43:19;101718.76;;;26.60;52.27
59873;BME280;50750;51.636;4.948;2022-08-05T03:45:50;101710.58;;;26.59;52.26
59873;BME280;50750;51.636;4.948;2022-08-05T03:48:17;101706.95;;;26.59;52.32
59873;BME280;50750;51.636;4.948;2022-08-05T03:50:59;101704.62;;;26.59;52.16
59873;BME280;50750;51.636;4.948;2022-08-05T03:56:31;101695.86;;;26.59;52.03
59873;BME280;50750;51.636;4.948;2022-08-05T03:59:00;101697.73;;;26.58;52.18
59873;BME280;50750;51.636;4.948;2022-08-05T04:01:30;101700.96;;;26.58;52.26
59873;BME280;50750;51.636;4.948;2022-08-05T04:03:59;101697.45;;;26.57;52.28
59873;BME280;50750;51.636;4.948;2022-08-05T04:06:27;101701.06;;;26.57;52.09
59873;BME280;50750;51.636;4.948;2022-08-05T04:08:54;101701.40;;;26.57;52.12
59873;BME280;50750;51.636;4.948;2022-08-05T04:11:22;101702.70;;;26.56;52.15
59873;BME280;50750;51.636;4.948;2022-08-05T04:13:48;101705.27;;;26.56;52.05
59873;BME280;50750;51.636;4.948;2022-08-05T04:16:15;101713.88;;;26.56;52.34
59873;BME280;50750;51.636;4.948;2022-08-05T04:18:44;101716.77;;;26.56;52.12
59873;BME280;50750;51.636;4.948;2022-08-05T04:21:12;101712.88;;;26.55;52.21
59873;BME280;50750;51.636;4.948;2022-08-05T04:23:38;101709.14;;;26.55;52.15
59873;BME280;50750;51.636;4.948;2022-08-05T04:26:05;101705.73;;;26.55;52.23
59873;BME280;50750;51.636;4.948;2022-08-05T04:28:31;101707.58;;;26.54;52.20
59873;BME280;50750;51.636;4.948;2022-08-05T04:30:59;101708.15;;;26.54;52.10
59873;BME280;50750;51.636;4.948;2022-08-05T04:33:26;101710.12;;;26.54;52.23
59873;BME280;50750;51.636;4.948;2022-08-05T04:35:53;101709.42;;;26.54;52.11
59873;BME280;50750;51.636;4.948;2022-08-05T04:38:19;101708.58;;;26.53;52.21
59873;BME280;50750;51.636;4.948;2022-08-05T04:40:46;101703.76;;;26.53;52.12
59873;BME280;50750;51.636;4.948;2022-08-05T04:43:12;101705.20;;;26.52;52.16
59873;BME280;50750;51.636;4.948;2022-08-05T04:45:39;101701.70;;;26.51;52.14
59873;BME280;50750;51.636;4.948;2022-08-05T04:48:07;101702.42;;;26.51;52.18
59873;BME280;50750;51.636;4.948;2022-08-05T04:50:41;101700.83;;;26.51;52.14
59873;BME280;50750;51.636;4.948;2022-08-05T04:53:09;101701.94;;;26.50;52.18
59873;BME280;50750;51.636;4.948;2022-08-05T04:55:37;101703.14;;;26.49;52.25
59873;BME280;50750;51.636;4.948;2022-08-05T04:58:06;101704.05;;;26.49;52.19
59873;BME280;50750;51.636;4.948;2022-08-05T05:00:35;101701.90;;;26.49;51.99
59873;BME280;50750;51.636;4.948;2022-08-05T05:03:04;101701.95;;;26.48;52.08
59873;BME280;50750;51.636;4.948;2022-08-05T05:05:31;101700.20;;;26.48;52.13
59873;BME280;50750;51.636;4.948;2022-08-05T05:08:00;101705.08;;;26.47;52.22
59873;BME280;50750;51.636;4.948;2022-08-05T05:10:28;101709.59;;;26.47;52.20
59873;BME280;50750;51.636;4.948;2022-08-05T05:12:55;101712.48;;;26.47;52.15
59873;BME280;50750;51.636;4.948;2022-08-05T05:15:21;101715.53;;;26.47;52.13
59873;BME280;50750;51.636;4.948;2022-08-05T05:17:48;101715.77;;;26.46;52.26
59873;BME280;50750;51.636;4.948;2022-08-05T05:20:14;101718.49;;;26.45;52.00
59873;BME280;50750;51.636;4.948;2022-08-05T05:22:41;101713.13;;;26.45;52.08
59873;BME280;50750;51.636;4.948;2022-08-05T05:25:08;101710.70;;;26.44;52.05
59873;BME280;50750;51.636;4.948;2022-08-05T05:27:35;101711.23;;;26.44;52.14
59873;BME280;50750;51.636;4.948;2022-08-05T05:30:03;101711.06;;;26.44;52.15
59873;BME280;50750;51.636;4.948;2022-08-05T05:32:30;101714.50;;;26.44;52.12
59873;BME280;50750;51.636;4.948;2022-08-05T05:34:57;101718.16;;;26.43;52.20
59873;BME280;50750;51.636;4.948;2022-08-05T05:37:24;101723.40;;;26.43;52.23
59873;BME280;50750;51.636;4.948;2022-08-05T05:39:50;101730.10;;;26.42;52.10
59873;BME280;50750;51.636;4.948;2022-08-05T05:42:17;101732.42;;;26.42;52.22
59873;BME280;50750;51.636;4.948;2022-08-05T05:44:43;101733.58;;;26.41;52.08
59873;BME280;50750;51.636;4.948;2022-08-05T05:47:10;101735.91;;;26.41;51.96
59873;BME280;50750;51.636;4.948;2022-08-05T05:49:36;101742.20;;;26.41;52.07
59873;BME280;50750;51.636;4.948;2022-08-05T05:52:03;101747.81;;;26.41;52.06
59873;BME280;50750;51.636;4.948;2022-08-05T05:54:30;101749.12;;;26.40;52.05
59873;BME280;50750;51.636;4.948;2022-08-05T05:56:57;101752.73;;;26.40;51.98
59873;BME280;50750;51.636;4.948;2022-08-05T05:59:24;101756.89;;;26.39;52.03
59873;BME280;50750;51.636;4.948;2022-08-05T06:01:50;101759.47;;;26.39;52.11
59873;BME280;50750;51.636;4.948;2022-08-05T06:04:17;101758.91;;;26.39;52.09
59873;BME280;50750;51.636;4.948;2022-08-05T06:06:44;101760.89;;;26.39;52.04
59873;BME280;50750;51.636;4.948;2022-08-05T06:09:11;101760.06;;;26.38;52.18
59873;BME280;50750;51.636;4.948;2022-08-05T06:11:37;101764.23;;;26.38;52.01
59873;BME280;50750;51.636;4.948;2022-08-05T06:14:04;101767.64;;;26.38;52.09
59873;BME280;50750;51.636;4.948;2022-08-05T06:16:30;101766.19;;;26.38;52.16
59873;BME280;50750;51.636;4.948;2022-08-05T06:18:57;101765.38;;;26.37;52.22
59873;BME280;50750;51.636;4.948;2022-08-05T06:21:23;101766.70;;;26.36;52.14
59873;BME280;50750;51.636;4.948;2022-08-05T06:23:50;101770.42;;;26.37;52.04
59873;BME280;50750;51.636;4.948;2022-08-05T06:26:16;101770.70;;;26.36;52.13
59873;BME280;50750;51.636;4.948;2022-08-05T06:28:43;101773.36;;;26.36;51.97
59873;BME280;50750;51.636;4.948;2022-08-05T06:31:10;101774.81;;;26.36;52.00
59873;BME280;50750;51.636;4.948;2022-08-05T06:33:36;101778.96;;;26.35;51.94
59873;BME280;50750;51.636;4.948;2022-08-05T06:36:03;101782.05;;;26.35;52.04
59873;BME280;50750;51.636;4.948;2022-08-05T06:38:30;101785.85;;;26.35;52.02
59873;BME280;50750;51.636;4.948;2022-08-05T06:40:56;101786.73;;;26.35;52.04
59873;BME280;50750;51.636;4.948;2022-08-05T06:43:23;101789.81;;;26.35;51.96
59873;BME280;50750;51.636;4.948;2022-08-05T06:45:49;101795.54;;;26.35;52.11
59873;BME280;50750;51.636;4.948;2022-08-05T06:48:16;101794.49;;;26.35;52.00
59873;BME280;50750;51.636;4.948;2022-08-05T06:50:42;101798.17;;;26.33;51.97
59873;BME280;50750;51.636;4.948;2022-08-05T06:53:09;101806.80;;;26.33;52.07
59873;BME280;50750;51.636;4.948;2022-08-05T06:55:35;101810.92;;;26.33;51.97
59873;BME280;50750;51.636;4.948;2022-08-05T06:58:02;101810.96;;;26.33;51.99
59873;BME280;50750;51.636;4.948;2022-08-05T07:00:29;101814.75;;;26.33;51.94
59873;BME280;50750;51.636;4.948;2022-08-05T07:02:56;101817.66;;;26.32;51.99
59873;BME280;50750;51.636;4.948;2022-08-05T07:05:23;101819.30;;;26.32;51.79
59873;BME280;50750;51.636;4.948;2022-08-05T07:07:50;101824.55;;;26.31;51.96
59873;BME280;50750;51.636;4.948;2022-08-05T07:10:17;101828.06;;;26.32;51.82
59873;BME280;50750;51.636;4.948;2022-08-05T07:12:43;101827.95;;;26.32;51.90
59873;BME280;50750;51.636;4.948;2022-08-05T07:15:28;101829.73;;;26.32;51.87
59873;BME280;50750;51.636;4.948;2022-08-05T07:18:14;101830.16;;;26.31;51.93
59873;BME280;50750;51.636;4.948;2022-08-05T07:20:40;101834.13;;;26.31;51.72
59873;BME280;50750;51.636;4.948;2022-08-05T07:23:07;101833.63;;;26.30;51.92
59873;BME280;50750;51.636;4.948;2022-08-05T07:25:33;101840.98;;;26.30;51.74
59873;BME280;50750;51.636;4.948;2022-08-05T07:28:00;101843.52;;;26.30;51.74
59873;BME280;50750;51.636;4.948;2022-08-05T07:30:27;101848.53;;;26.30;51.83
59873;BME280;50750;51.636;4.948;2022-08-05T07:32:53;101850.68;;;26.30;51.87
59873;BME280;50750;51.636;4.948;2022-08-05T07:35:20;101851.96;;;26.30;52.00
59873;BME280;50750;51.636;4.948;2022-08-05T07:37:47;101853.74;;;26.30;51.81
59873;BME280;50750;51.636;4.948;2022-08-05T07:40:13;101856.15;;;26.29;51.89
59873;BME280;50750;51.636;4.948;2022-08-05T07:42:40;101859.16;;;26.30;51.89
59873;BME280;50750;51.636;4.948;2022-08-05T07:45:07;101858.48;;;26.29;51.92
59873;BME280;50750;51.636;4.948;2022-08-05T07:47:33;101862.96;;;26.29;51.96
59873;BME280;50750;51.636;4.948;2022-08-05T07:50:00;101865.85;;;26.29;51.67
59873;BME280;50750;51.636;4.948;2022-08-05T07:52:26;101867.64;;;26.29;51.73
59873;BME280;50750;51.636;4.948;2022-08-05T07:54:53;101875.15;;;26.30;51.82
59873;BME280;50750;51.636;4.948;2022-08-05T07:57:19;101878.75;;;26.29;51.81
59873;BME280;50750;51.636;4.948;2022-08-05T07:59:46;101878.41;;;26.29;51.91
59873;BME280;50750;51.636;4.948;2022-08-05T08:02:12;101884.00;;;26.29;51.90
59873;BME280;50750;51.636;4.948;2022-08-05T08:04:39;101884.36;;;26.29;51.84
59873;BME280;50750;51.636;4.948;2022-08-05T08:07:06;101887.36;;;26.29;52.04
59873;BME280;50750;51.636;4.948;2022-08-05T08:09:32;101888.79;;;26.30;51.90
59873;BME280;50750;51.636;4.948;2022-08-05T08:11:59;101888.98;;;26.30;51.78
59873;BME280;50750;51.636;4.948;2022-08-05T08:14:25;101889.89;;;26.29;51.71
59873;BME280;50750;51.636;4.948;2022-08-05T08:16:52;101891.84;;;26.30;51.73
59873;BME280;50750;51.636;4.948;2022-08-05T08:19:18;101897.58;;;26.30;51.73
59873;BME280;50750;51.636;4.948;2022-08-05T08:21:45;101894.20;;;26.29;51.96
59873;BME280;50750;51.636;4.948;2022-08-05T08:24:11;101893.64;;;26.30;51.79
59873;BME280;50750;51.636;4.948;2022-08-05T08:26:38;101900.64;;;26.30;51.83
59873;BME280;50750;51.636;4.948;2022-08-05T08:29:05;101905.83;;;26.30;51.84
59873;BME280;50750;51.636;4.948;2022-08-05T08:31:32;101905.11;;;26.30;51.81
59873;BME280;50750;51.636;4.948;2022-08-05T08:33:58;101909.61;;;26.30;51.88
59873;BME280;50750;51.636;4.948;2022-08-05T08:36:25;101912.09;;;26.30;51.73
59873;BME280;50750;51.636;4.948;2022-08-05T08:38:51;101914.77;;;26.30;51.83
59873;BME280;50750;51.636;4.948;2022-08-05T08:41:21;101919.96;;;26.31;51.64
59873;BME280;50750;51.636;4.948;2022-08-05T08:43:49;101913.85;;;26.31;51.89
59873;BME280;50750;51.636;4.948;2022-08-05T08:46:18;101919.71;;;26.32;51.91
59873;BME280;50750;51.636;4.948;2022-08-05T08:48:46;101922.41;;;26.31;51.76
59873;BME280;50750;51.636;4.948;2022-08-05T08:51:16;101920.27;;;26.31;52.00
59873;BME280;50750;51.636;4.948;2022-08-05T08:53:44;101923.63;;;26.32;51.82
59873;BME280;50750;51.636;4.948;2022-08-05T08:56:11;101920.44;;;26.31;51.78
59873;BME280;50750;51.636;4.948;2022-08-05T08:58:38;101925.42;;;26.32;51.98
59873;BME280;50750;51.636;4.948;2022-08-05T09:01:06;101927.74;;;26.32;51.79
59873;BME280;50750;51.636;4.948;2022-08-05T09:03:34;101930.27;;;26.32;51.84
59873;BME280;50750;51.636;4.948;2022-08-05T09:06:01;101934.92;;;26.32;51.84
59873;BME280;50750;51.636;4.948;2022-08-05T09:08:28;101934.52;;;26.33;51.91
59873;BME280;50750;51.636;4.948;2022-08-05T09:10:54;101939.50;;;26.33;51.75
59873;BME280;50750;51.636;4.948;2022-08-05T09:13:21;101942.38;;;26.33;51.76
59873;BME280;50750;51.636;4.948;2022-08-05T09:15:48;101942.34;;;26.34;51.62
59873;BME280;50750;51.636;4.948;2022-08-05T09:18:14;101947.73;;;26.33;51.84
59873;BME280;50750;51.636;4.948;2022-08-05T09:20:42;101950.17;;;26.35;51.82
59873;BME280;50750;51.636;4.948;2022-08-05T09:23:12;101949.09;;;26.34;51.63
59873;BME280;50750;51.636;4.948;2022-08-05T09:25:43;101956.81;;;26.35;51.74
59873;BME280;50750;51.636;4.948;2022-08-05T09:28:18;101966.83;;;26.35;51.82
59873;BME280;50750;51.636;4.948;2022-08-05T09:30:59;101967.20;;;26.35;51.68
59873;BME280;50750;51.636;4.948;2022-08-05T09:33:31;101966.61;;;26.35;51.68
59873;BME280;50750;51.636;4.948;2022-08-05T09:36:11;101976.46;;;26.36;51.59
59873;BME280;50750;51.636;4.948;2022-08-05T09:38:38;101972.34;;;26.36;51.65
59873;BME280;50750;51.636;4.948;2022-08-05T09:41:06;101977.14;;;26.36;51.58
59873;BME280;50750;51.636;4.948;2022-08-05T09:43:37;101977.83;;;26.37;51.68
59873;BME280;50750;51.636;4.948;2022-08-05T09:46:05;101984.98;;;26.37;51.70
59873;BME280;50750;51.636;4.948;2022-08-05T09:48:36;101983.16;;;26.37;51.63
59873;BME280;50750;51.636;4.948;2022-08-05T09:51:06;101981.71;;;26.37;51.66
59873;BME280;50750;51.636;4.948;2022-08-05T09:53:47;101982.75;;;26.38;51.62
59873;BME280;50750;51.636;4.948;2022-08-05T09:56:23;101987.25;;;26.38;51.45
59873;BME280;50750;51.636;4.948;2022-08-05T10:01:27;101993.31;;;26.38;51.63
59873;BME280;50750;51.636;4.948;2022-08-05T10:03:57;101996.55;;;26.38;51.39
59873;BME280;50750;51.636;4.948;2022-08-05T10:06:25;101998.47;;;26.39;51.51
59873;BME280;50750;51.636;4.948;2022-08-05T10:08:54;102004.04;;;26.39;51.62
59873;BME280;50750;51.636;4.948;2022-08-05T10:11:20;102004.88;;;26.40;51.46
59873;BME280;50750;51.636;4.948;2022-08-05T10:13:47;102003.59;;;26.40;51.30
59873;BME280;50750;51.636;4.948;2022-08-05T10:16:31;102004.12;;;26.40;51.38
59873;BME280;50750;51.636;4.948;2022-08-05T10:19:00;102002.67;;;26.40;51.28
59873;BME280;50750;51.636;4.948;2022-08-05T10:21:27;102003.56;;;26.40;51.35
59873;BME280;50750;51.636;4.948;2022-08-05T10:23:54;102004.27;;;26.41;51.14
59873;BME280;50750;51.636;4.948;2022-08-05T10:26:21;102009.45;;;26.41;51.34
59873;BME280;50750;51.636;4.948;2022-08-05T10:28:48;102012.10;;;26.42;51.24
59873;BME280;50750;51.636;4.948;2022-08-05T10:31:16;102010.33;;;26.41;51.25
59873;BME280;50750;51.636;4.948;2022-08-05T10:33:43;102018.94;;;26.41;51.14
59873;BME280;50750;51.636;4.948;2022-08-05T10:36:09;102019.45;;;26.42;51.08
59873;BME280;50750;51.636;4.948;2022-08-05T10:38:41;102023.18;;;26.42;51.10
59873;BME280;50750;51.636;4.948;2022-08-05T10:41:18;102023.15;;;26.42;51.22
59873;BME280;50750;51.636;4.948;2022-08-05T10:43:56;102024.27;;;26.42;51.23
59873;BME280;50750;51.636;4.948;2022-08-05T10:46:42;102031.60;;;26.42;51.28
59873;BME280;50750;51.636;4.948;2022-08-05T10:49:09;102035.70;;;26.43;51.03
59873;BME280;50750;51.636;4.948;2022-08-05T10:51:53;102043.25;;;26.42;50.95
59873;BME280;50750;51.636;4.948;2022-08-05T10:54:24;102045.73;;;26.43;50.91
59873;BME280;50750;51.636;4.948;2022-08-05T10:57:11;102046.40;;;26.44;50.71
59873;BME280;50750;51.636;4.948;2022-08-05T10:59:38;102049.45;;;26.44;50.77
59873;BME280;50750;51.636;4.948;2022-08-05T11:02:07;102052.87;;;26.44;50.54
59873;BME280;50750;51.636;4.948;2022-08-05T11:04:45;102056.59;;;26.44;50.59
59873;BME280;50750;51.636;4.948;2022-08-05T11:07:13;102063.93;;;26.44;50.63
59873;BME280;50750;51.636;4.948;2022-08-05T11:15:30;102074.86;;;26.45;50.57
59873;BME280;50750;51.636;4.948;2022-08-05T11:20:48;102079.39;;;26.45;50.54
59873;BME280;50750;51.636;4.948;2022-08-05T11:26:14;102083.98;;;26.43;50.65
59873;BME280;50750;51.636;4.948;2022-08-05T11:28:48;102084.33;;;26.43;50.59
59873;BME280;50750;51.636;4.948;2022-08-05T11:36:15;102100.11;;;26.44;50.55
59873;BME280;50750;51.636;4.948;2022-08-05T11:41:13;102103.48;;;26.44;50.37
59873;BME280;50750;51.636;4.948;2022-08-05T11:46:33;102112.09;;;26.44;50.54
59873;BME280;50750;51.636;4.948;2022-08-05T11:49:02;102112.29;;;26.44;50.34
59873;BME280;50750;51.636;4.948;2022-08-05T11:51:29;102116.39;;;26.44;50.08
59873;BME280;50750;51.636;4.948;2022-08-05T11:53:57;102119.44;;;26.44;50.03
59873;BME280;50750;51.636;4.948;2022-08-05T11:56:41;102119.69;;;26.44;49.94
59873;BME280;50750;51.636;4.948;2022-08-05T11:59:12;102121.42;;;26.44;50.11
59873;BME280;50750;51.636;4.948;2022-08-05T12:02:00;102121.95;;;26.44;50.06
59873;BME280;50750;51.636;4.948;2022-08-05T12:04:48;102122.86;;;26.44;50.09
59873;BME280;50750;51.636;4.948;2022-08-05T12:07:16;102120.74;;;26.44;49.92
59873;BME280;50750;51.636;4.948;2022-08-05T12:09:48;102122.00;;;26.44;50.00
59873;BME280;50750;51.636;4.948;2022-08-05T12:12:25;102122.18;;;26.44;50.10
59873;BME280;50750;51.636;4.948;2022-08-05T12:14:55;102125.36;;;26.45;49.81
59873;BME280;50750;51.636;4.948;2022-08-05T12:17:21;102126.61;;;26.45;49.68
59873;BME280;50750;51.636;4.948;2022-08-05T12:19:50;102127.47;;;26.45;49.44
59873;BME280;50750;51.636;4.948;2022-08-05T12:22:20;102126.34;;;26.46;49.74
59873;BME280;50750;51.636;4.948;2022-08-05T12:24:49;102134.23;;;26.46;49.62
59873;BME280;50750;51.636;4.948;2022-08-05T12:27:22;102132.45;;;26.45;49.52
59873;BME280;50750;51.636;4.948;2022-08-05T12:30:03;102133.36;;;26.45;49.53
59873;BME280;50750;51.636;4.948;2022-08-05T12:32:34;102131.04;;;26.45;49.32
59873;BME280;50750;51.636;4.948;2022-08-05T12:35:08;102134.22;;;26.46;49.46
59873;BME280;50750;51.636;4.948;2022-08-05T12:37:35;102135.48;;;26.46;49.22
59873;BME280;50750;51.636;4.948;2022-08-05T12:40:07;102140.86;;;26.47;49.38
59873;BME280;50750;51.636;4.948;2022-08-05T12:42:34;102145.51;;;26.47;49.13
59873;BME280;50750;51.636;4.948;2022-08-05T12:45:06;102146.54;;;26.48;49.36
59873;BME280;50750;51.636;4.948;2022-08-05T12:47:34;102151.19;;;26.48;49.24
59873;BME280;50750;51.636;4.948;2022-08-05T12:50:15;102154.90;;;26.48;49.29
59873;BME280;50750;51.636;4.948;2022-08-05T12:52:55;102150.05;;;26.48;49.26
59873;BME280;50750;51.636;4.948;2022-08-05T12:55:23;102158.83;;;26.49;49.25
59873;BME280;50750;51.636;4.948;2022-08-05T12:57:53;102164.20;;;26.49;49.23
59873;BME280;50750;51.636;4.948;2022-08-05T13:00:22;102162.38;;;26.49;49.36
59873;BME280;50750;51.636;4.948;2022-08-05T13:02:49;102169.86;;;26.50;49.32
59873;BME280;50750;51.636;4.948;2022-08-05T13:05:16;102170.59;;;26.50;49.01
59873;BME280;50750;51.636;4.948;2022-08-05T13:07:44;102171.80;;;26.51;48.99
59873;BME280;50750;51.636;4.948;2022-08-05T13:10:15;102175.89;;;26.51;48.85
59873;BME280;50750;51.636;4.948;2022-08-05T13:12:43;102176.05;;;26.52;48.74
59873;BME280;50750;51.636;4.948;2022-08-05T13:15:11;102178.38;;;26.52;48.89
59873;BME280;50750;51.636;4.948;2022-08-05T13:17:38;102176.41;;;26.52;48.86
59873;BME280;50750;51.636;4.948;2022-08-05T13:22:36;102186.23;;;26.53;48.88
59873;BME280;50750;51.636;4.948;2022-08-05T13:25:07;102183.31;;;26.53;48.87
59873;BME280;50750;51.636;4.948;2022-08-05T13:27:41;102188.02;;;26.52;48.93
59873;BME280;50750;51.636;4.948;2022-08-05T13:30:10;102192.70;;;26.52;48.79
59873;BME280;50750;51.636;4.948;2022-08-05T13:32:38;102189.78;;;26.53;48.86
59873;BME280;50750;51.636;4.948;2022-08-05T13:35:06;102193.22;;;26.53;48.86
59873;BME280;50750;51.636;4.948;2022-08-05T13:37:35;102196.42;;;26.53;48.80
59873;BME280;50750;51.636;4.948;2022-08-05T13:40:01;102203.05;;;26.53;48.82